Time;durP1;ratioP1;P1;durP2;ratioP2;P2;SDS_P1;SDS_P2;PMS_P1;PMS_P2;Temp;Humidity;BMP_temperature;BMP_pressure;BME280_temperature;BME280_humidity;BME280_pressure;Samples;Min_cycle;Max_cycle;Signal;HPM_P1;HPM_P2
2024/02/05 00:00:41;;;;;;;28.10;6.10;;;;;;;10.00;91.79;101262.03;5006478;28;20050;-62
2024/02/05 00:03:09;;;;;;;12.48;3.58;;;;;;;9.99;91.79;101252.09;5007334;28;20049;-62
2024/02/05 00:05:37;;;;;;;14.13;3.50;;;;;;;9.97;91.79;101254.38;4995285;28;20467;-63
2024/02/05 00:08:05;;;;;;;13.35;4.07;;;;;;;9.96;91.86;101255.50;5012100;28;20049;-61
2024/02/05 00:10:33;;;;;;;11.60;3.40;;;;;;;9.95;91.87;101262.19;5004597;28;20408;-62
2024/02/05 00:13:00;;;;;;;14.85;3.78;;;;;;;9.95;91.92;101259.44;4997769;28;20404;-62
2024/02/05 00:15:28;;;;;;;18.70;4.43;;;;;;;9.93;91.95;101241.53;5006428;28;20058;-63
2024/02/05 00:17:55;;;;;;;14.20;3.90;;;;;;;9.93;91.47;101244.31;5006687;28;20046;-63
2024/02/05 00:20:22;;;;;;;9.52;3.35;;;;;;;9.92;91.60;101243.50;4999460;28;20050;-64
2024/02/05 00:22:50;;;;;;;10.15;3.33;;;;;;;9.90;91.79;101240.22;5005832;28;20062;-62
2024/02/05 00:25:19;;;;;;;12.90;3.00;;;;;;;9.91;91.53;101238.28;5010308;28;20164;-62
2024/02/05 00:27:47;;;;;;;17.85;3.47;;;;;;;9.89;91.70;101246.91;4992084;28;20058;-63
2024/02/05 00:30:15;;;;;;;13.45;4.03;;;;;;;9.88;91.49;101253.56;5010466;28;20068;-62
2024/02/05 00:32:42;;;;;;;29.02;7.20;;;;;;;9.90;91.97;101254.06;5011288;28;20411;-63
2024/02/05 00:35:12;;;;;;;14.93;4.85;;;;;;;9.90;91.80;101254.06;5010571;28;20081;-62
2024/02/05 00:37:39;;;;;;;19.70;5.05;;;;;;;9.90;91.80;101250.50;5009527;28;20042;-63
2024/02/05 00:40:07;;;;;;;16.75;4.88;;;;;;;9.91;91.95;101243.81;5010742;28;20065;-62
2024/02/05 00:42:35;;;;;;;10.20;4.00;;;;;;;9.89;92.02;101249.69;5009474;28;20795;-63
2024/02/05 00:45:03;;;;;;;15.75;4.68;;;;;;;9.89;91.95;101246.91;5010006;28;20057;-62
2024/02/05 00:47:30;;;;;;;13.00;4.63;;;;;;;9.88;92.21;101242.50;5010066;28;20054;-62
2024/02/05 00:49:57;;;;;;;18.60;4.45;;;;;;;9.87;92.31;101240.91;5008411;28;20042;-62
2024/02/05 00:52:25;;;;;;;14.85;4.43;;;;;;;9.85;92.46;101243.16;5009835;28;20050;-62
2024/02/05 00:54:52;;;;;;;17.70;4.20;;;;;;;9.84;92.43;101235.22;4996292;28;20046;-62
2024/02/05 00:57:20;;;;;;;15.32;4.03;;;;;;;9.82;92.66;101247.41;5009388;28;20061;-62
2024/02/05 00:59:47;;;;;;;14.23;4.43;;;;;;;9.83;92.50;101237.16;5008946;28;20057;-62
2024/02/05 01:02:15;;;;;;;16.83;3.75;;;;;;;9.81;92.85;101239.44;5009416;28;20728;-62
2024/02/05 01:04:42;;;;;;;15.10;4.18;;;;;;;9.79;92.85;101242.53;5002965;28;20049;-62
2024/02/05 01:07:10;;;;;;;13.65;4.28;;;;;;;9.80;92.74;101232.28;5004417;28;20046;-62
2024/02/05 01:09:37;;;;;;;12.07;3.30;;;;;;;9.79;93.13;101225.13;5007078;28;20065;-62
2024/02/05 01:12:05;;;;;;;18.48;3.55;;;;;;;9.79;93.15;101219.59;5009694;28;20054;-62
2024/02/05 01:14:32;;;;;;;14.75;3.67;;;;;;;9.78;92.90;101217.97;5009127;28;20046;-62
2024/02/05 01:17:00;;;;;;;15.55;3.78;;;;;;;9.78;93.00;101223.50;5008290;28;20057;-62
2024/02/05 01:19:31;;;;;;;14.48;5.30;;;;;;;9.78;93.13;101213.25;5009637;28;20508;-62
2024/02/05 01:21:58;;;;;;;8.82;3.33;;;;;;;9.78;93.01;101223.50;5009454;28;20588;-62
2024/02/05 01:24:25;;;;;;;16.60;4.88;;;;;;;9.76;93.12;101215.56;5018669;28;20053;-61
2024/02/05 01:26:53;;;;;;;19.40;4.45;;;;;;;9.76;93.17;101209.19;5009106;28;20042;-61
2024/02/05 01:29:20;;;;;;;13.80;3.55;;;;;;;9.76;93.30;101210.03;5008932;28;20053;-62
2024/02/05 01:31:48;;;;;;;12.93;4.05;;;;;;;9.76;93.57;101214.72;5009043;28;20049;-62
2024/02/05 01:34:16;;;;;;;10.32;3.40;;;;;;;9.74;93.36;101200.44;5008975;28;20054;-62
2024/02/05 01:36:43;;;;;;;18.83;5.32;;;;;;;9.72;93.35;101206.28;5004134;28;20069;-62
2024/02/05 01:39:10;;;;;;;13.68;4.00;;;;;;;9.72;93.44;101197.16;5008317;28;20042;-62
2024/02/05 01:41:38;;;;;;;14.27;4.28;;;;;;;9.70;93.50;101180.91;5008790;28;20045;-63
2024/02/05 01:44:05;;;;;;;18.15;4.45;;;;;;;9.69;93.45;101186.75;5009184;28;20053;-62
2024/02/05 01:46:35;;;;;;;17.88;4.22;;;;;;;9.68;93.50;101168.56;5008732;28;20470;-61
2024/02/05 01:49:06;;;;;;;10.43;3.28;;;;;;;9.66;93.60;101179.13;5008681;28;20057;-62
2024/02/05 01:51:38;;;;;;;19.75;5.47;;;;;;;9.65;93.55;101171.97;4995378;28;20049;-62
2024/02/05 01:54:08;;;;;;;;;;;;;;;9.63;93.79;101166.78;5008995;28;20048;-63
2024/02/05 01:56:36;;;;;;;16.83;5.63;;;;;;;9.63;93.59;101161.25;4996920;28;19928;-61
2024/02/05 01:59:04;;;;;;;8.82;3.20;;;;;;;9.61;93.62;101141.41;5003870;28;20054;-62
2024/02/05 02:01:37;;;;;;;9.43;4.13;;;;;;;9.60;93.66;101145.31;4998603;28;20065;-62
2024/02/05 02:04:06;;;;;;;13.50;3.42;;;;;;;9.61;93.67;101124.03;5007799;28;20046;-62
2024/02/05 02:06:35;;;;;;;15.40;3.22;;;;;;;9.60;93.65;101133.44;5008623;28;20038;-62
2024/02/05 02:09:03;;;;;;;16.15;4.57;;;;;;;9.57;93.81;101123.03;5006956;28;20058;-61
2024/02/05 02:11:31;;;;;;;9.68;3.05;;;;;;;9.55;93.70;101109.56;5008944;28;20050;-62
2024/02/05 02:13:58;;;;;;;13.75;3.42;;;;;;;9.53;93.77;101122.88;4990369;28;20038;-62
2024/02/05 02:16:29;;;;;;;8.20;3.28;;;;;;;9.52;93.73;101112.16;5008274;28;20507;-62
2024/02/05 02:19:01;;;;;;;9.10;3.47;;;;;;;9.50;93.73;101125.50;5003838;28;20073;-62
2024/02/05 02:21:31;;;;;;;14.00;3.58;;;;;;;9.47;93.71;101115.13;5007664;28;20069;-62
2024/02/05 02:23:58;;;;;;;12.30;3.58;;;;;;;9.46;93.94;101105.19;5007960;28;20064;-62
2024/02/05 02:26:26;;;;;;;9.35;2.83;;;;;;;9.44;94.00;101108.28;5008171;28;20405;-62
2024/02/05 02:28:54;;;;;;;15.88;4.13;;;;;;;9.44;94.05;101107.47;4998025;28;20050;-62
2024/02/05 02:31:25;;;;;;;10.45;2.75;;;;;;;9.43;94.14;101100.31;5008664;28;20084;-62
2024/02/05 02:34:07;;;;;;;8.73;2.92;;;;;;;9.43;94.14;101106.66;5008194;28;20054;-62
2024/02/05 02:36:43;;;;;;;12.67;3.43;;;;;;;9.43;94.25;101116.91;5008086;28;20046;-61
2024/02/05 02:39:24;;;;;;;14.63;3.13;;;;;;;9.45;94.11;101123.72;5007669;28;20050;-61
2024/02/05 02:41:54;;;;;;;11.05;4.22;;;;;;;9.46;93.79;101121.78;5007562;28;20079;-61
2024/02/05 02:44:24;;;;;;;16.92;4.03;;;;;;;9.46;94.03;101106.00;5007722;28;20359;-62
2024/02/05 02:46:54;;;;;;;21.52;5.35;;;;;;;9.45;94.21;101109.09;5007044;28;20506;-61
2024/02/05 02:49:22;;;;;;;13.60;3.45;;;;;;;9.46;94.24;101091.38;5007556;28;20056;-62
2024/02/05 02:51:49;;;;;;;11.45;3.05;;;;;;;9.45;94.33;101098.06;5007868;28;20069;-61
2024/02/05 02:54:17;;;;;;;19.23;3.50;;;;;;;9.43;94.37;101103.06;5007136;28;20041;-62
2024/02/05 02:56:44;;;;;;;9.50;3.30;;;;;;;9.41;94.38;101088.78;4999141;28;20049;-61
2024/02/05 02:59:13;;;;;;;11.23;2.88;;;;;;;9.40;94.60;101079.69;5008066;28;20053;-62
2024/02/05 03:01:40;;;;;;;9.15;3.17;;;;;;;9.40;94.65;101070.59;5064952;23;20544;-65
2024/02/05 03:04:08;;;;;;;9.38;3.63;;;;;;;9.40;94.59;101067.84;4953862;28;20047;-65
2024/02/05 03:06:35;;;;;;;10.18;3.38;;;;;;;9.39;94.74;101060.69;4967800;28;20066;-65
2024/02/05 03:09:03;;;;;;;12.52;5.07;;;;;;;9.35;94.91;101059.69;4969466;28;20046;-65
2024/02/05 03:11:30;;;;;;;20.55;4.90;;;;;;;9.34;94.93;101058.09;4968540;28;20063;-65
2024/02/05 03:13:58;;;;;;;12.68;4.53;;;;;;;9.31;94.94;101055.97;4968203;28;20050;-65
2024/02/05 03:16:25;;;;;;;8.52;3.80;;;;;;;9.30;94.86;101057.13;4967874;28;20050;-65
2024/02/05 03:18:53;;;;;;;7.50;2.65;;;;;;;9.29;94.88;101058.28;4962476;28;20055;-65
2024/02/05 03:21:20;;;;;;;9.65;3.63;;;;;;;9.28;95.05;101040.06;4968075;28;20046;-65
2024/02/05 03:23:48;;;;;;;11.63;3.20;;;;;;;9.26;95.00;101040.41;4968071;28;20505;-65
2024/02/05 03:26:15;;;;;;;8.02;3.03;;;;;;;9.25;95.09;101033.25;4950093;28;20054;-65
2024/02/05 03:28:43;;;;;;;11.35;2.63;;;;;;;9.25;95.12;101019.44;4967269;28;20809;-65
2024/02/05 03:31:10;;;;;;;4.85;2.30;;;;;;;9.23;95.04;101020.91;4967766;28;20405;-65
2024/02/05 03:33:38;;;;;;;8.20;2.80;;;;;;;9.23;95.19;101024.47;4968044;28;20051;-65
2024/02/05 03:36:05;;;;;;;9.93;3.17;;;;;;;9.22;95.27;101016.50;4968110;28;20054;-65
2024/02/05 03:38:33;;;;;;;8.68;2.70;;;;;;;9.23;95.24;101012.63;4968182;28;20051;-65
2024/02/05 03:41:00;;;;;;;11.57;2.72;;;;;;;9.25;95.09;101010.31;4968096;28;20060;-65
2024/02/05 03:43:27;;;;;;;11.90;2.95;;;;;;;9.27;95.15;101005.28;4950315;28;20057;-65
2024/02/05 03:45:55;;;;;;;7.88;2.92;;;;;;;9.26;95.16;100992.63;4954909;28;20089;-65
2024/02/05 03:48:22;;;;;;;9.57;3.17;;;;;;;9.28;95.08;100993.09;4967665;28;20058;-65
2024/02/05 03:50:49;;;;;;;5.13;2.83;;;;;;;9.25;94.98;100978.00;4967575;28;20599;-65
2024/02/05 03:53:17;;;;;;;13.88;3.38;;;;;;;9.24;94.91;100967.28;4954868;28;20049;-65
2024/02/05 03:55:45;;;;;;;9.45;2.60;;;;;;;9.23;95.03;100963.69;4967107;28;20054;-65
2024/02/05 03:58:12;;;;;;;9.43;2.75;;;;;;;9.21;94.76;100957.72;4966999;28;20043;-65
2024/02/05 04:00:39;;;;;;;9.95;3.10;;;;;;;9.18;94.76;100974.94;4950509;28;20055;-65
2024/02/05 04:03:07;;;;;;;10.82;2.75;;;;;;;9.16;94.69;100972.50;4986793;28;20088;-65
2024/02/05 04:05:34;;;;;;;9.65;2.42;;;;;;;9.15;94.92;100956.25;4995277;28;20585;-66
2024/02/05 04:08:02;;;;;;;8.77;2.60;;;;;;;9.14;94.93;100944.38;4987123;28;20049;-65
2024/02/05 04:10:29;;;;;;;20.38;2.88;;;;;;;9.12;94.81;100951.38;4986212;28;20058;-65
2024/02/05 04:12:56;;;;;;;9.05;2.60;;;;;;;9.08;94.89;100934.66;4986659;28;20488;-65
2024/02/05 04:15:24;;;;;;;12.10;2.83;;;;;;;9.08;94.93;100955.97;4986539;28;20051;-65
2024/02/05 04:17:51;;;;;;;12.23;2.80;;;;;;;9.06;94.87;100949.94;4986319;28;20065;-65
2024/02/05 04:20:19;;;;;;;5.50;2.85;;;;;;;9.05;95.07;100956.63;4953773;28;20162;-65
2024/02/05 04:22:49;;;;;;;11.15;3.38;;;;;;;9.04;95.04;100950.28;4986663;28;20046;-65
2024/02/05 04:25:16;;;;;;;14.80;2.55;;;;;;;9.04;94.96;100921.84;4988721;28;20046;-65
2024/02/05 04:27:43;;;;;;;5.80;2.05;;;;;;;9.02;94.93;100938.75;4995335;28;20424;-65
2024/02/05 04:30:12;;;;;;;7.25;2.72;;;;;;;9.03;94.91;100965.22;4986786;28;20038;-65
2024/02/05 04:32:39;;;;;;;6.40;3.20;;;;;;;9.04;94.54;100933.72;4986704;28;20049;-65
2024/02/05 04:35:07;;;;;;;6.05;2.20;;;;;;;9.02;94.85;100924.97;4986827;28;20066;-65
2024/02/05 04:37:35;;;;;;;6.55;2.42;;;;;;;9.00;94.94;100935.50;4985415;28;20042;-65
2024/02/05 04:40:03;;;;;;;10.70;2.10;;;;;;;9.02;94.97;100919.44;4986158;28;20046;-65
2024/02/05 04:42:31;;;;;;;9.27;1.92;;;;;;;9.01;94.93;100937.13;4986511;28;20056;-64
2024/02/05 04:44:59;;;;;;;12.57;2.55;;;;;;;9.00;94.90;100921.69;4986364;28;20042;-65
2024/02/05 04:47:26;;;;;;;7.15;2.70;;;;;;;9.00;94.88;100924.44;4986639;28;20054;-65
2024/02/05 04:49:53;;;;;;;10.13;2.78;;;;;;;9.00;94.87;100921.69;4986300;28;20050;-65
2024/02/05 04:52:21;;;;;;;8.30;2.25;;;;;;;9.00;94.74;100921.69;4986319;28;20042;-66
2024/02/05 04:54:48;;;;;;;7.97;2.47;;;;;;;9.01;95.02;100922.50;4985720;28;20058;-65
2024/02/05 04:57:16;;;;;;;8.95;3.40;;;;;;;9.01;94.92;100926.09;4986681;28;20059;-65
2024/02/05 04:59:43;;;;;;;9.45;2.60;;;;;;;9.03;94.94;100915.50;4986268;28;20038;-65
2024/02/05 05:02:10;;;;;;;26.63;4.18;;;;;;;9.04;94.82;100925.44;4987727;28;20062;-65
2024/02/05 05:04:41;;;;;;;9.05;2.50;;;;;;;9.05;94.69;100932.56;5005598;28;20050;-65
2024/02/05 05:07:08;;;;;;;11.85;3.53;;;;;;;9.06;94.87;100920.38;5005676;28;20050;-65
2024/02/05 05:09:36;;;;;;;8.73;2.70;;;;;;;9.07;95.03;100913.72;5006860;28;20054;-64
2024/02/05 05:12:06;;;;;;;13.45;2.90;;;;;;;9.07;94.88;100905.44;5009351;28;20068;-65
2024/02/05 05:14:33;;;;;;;16.13;3.88;;;;;;;9.08;94.90;100918.09;5009765;28;20507;-65
2024/02/05 05:17:01;;;;;;;12.50;3.70;;;;;;;9.07;94.79;100899.91;5009082;28;20062;-65
2024/02/05 05:19:28;;;;;;;13.55;2.78;;;;;;;9.07;94.70;100919.25;4992030;28;20050;-65
2024/02/05 05:21:55;;;;;;;7.65;2.58;;;;;;;9.10;94.92;100915.81;5009123;28;20046;-65
2024/02/05 05:24:23;;;;;;;9.60;2.83;;;;;;;9.09;94.82;100897.63;5009257;28;20583;-65
2024/02/05 05:26:50;;;;;;;7.10;2.92;;;;;;;9.10;94.64;100903.97;4991355;28;20376;-65
2024/02/05 05:29:17;;;;;;;9.02;2.53;;;;;;;9.09;94.74;100903.16;5008767;28;20056;-65
2024/02/05 05:31:45;;;;;;;13.98;2.72;;;;;;;9.10;94.73;100893.72;5009070;28;20495;-65
2024/02/05 05:34:14;;;;;;;10.32;3.15;;;;;;;9.11;94.68;100902.81;5009299;28;20085;-65
2024/02/05 05:36:41;;;;;;;7.88;2.42;;;;;;;9.09;94.76;100897.63;5008493;28;20065;-65
2024/02/05 05:39:09;;;;;;;14.52;3.42;;;;;;;9.10;94.64;100888.22;5009295;28;20591;-66
2024/02/05 05:41:36;;;;;;;12.80;3.95;;;;;;;9.10;94.74;100881.88;5008345;28;20054;-66
2024/02/05 05:44:04;;;;;;;15.52;2.30;;;;;;;9.08;94.81;100882.19;5009028;28;20057;-65
2024/02/05 05:46:32;;;;;;;9.70;4.15;;;;;;;9.08;94.70;100873.13;5008518;28;20052;-65
2024/02/05 05:48:59;;;;;;;11.73;2.67;;;;;;;9.10;94.65;100873.59;5009533;28;20535;-65
2024/02/05 05:51:27;;;;;;;12.45;2.97;;;;;;;9.09;94.71;100869.19;5008107;28;20045;-65
2024/02/05 05:53:54;;;;;;;17.30;3.72;;;;;;;9.09;94.77;100864.47;5008904;28;20049;-65
2024/02/05 05:56:21;;;;;;;8.63;2.20;;;;;;;9.08;94.85;100851.03;4990966;28;20054;-65
2024/02/05 05:58:52;;;;;;;11.45;2.78;;;;;;;9.06;94.83;100854.09;5006644;28;20121;-65
2024/02/05 06:01:20;;;;;;;11.30;2.60;;;;;;;9.04;94.85;100839.81;5008562;28;20062;-65
2024/02/05 06:03:47;;;;;;;8.38;2.70;;;;;;;9.03;94.99;100846.47;5008586;28;20061;-65
2024/02/05 06:06:15;;;;;;;10.15;2.78;;;;;;;9.02;94.99;100839.34;4990834;28;20046;-65
2024/02/05 06:08:42;;;;;;;12.05;2.65;;;;;;;9.01;95.03;100845.19;5008282;28;20057;-65
2024/02/05 06:11:10;;;;;;;8.23;2.53;;;;;;;9.00;95.13;100838.84;5007810;28;20433;-65
2024/02/05 06:13:37;;;;;;;6.38;2.10;;;;;;;8.97;95.03;100838.72;5008152;28;20049;-65
2024/02/05 06:16:11;;;;;;;6.05;2.53;;;;;;;8.96;95.27;100837.91;5008300;28;20042;-65
2024/02/05 06:18:40;;;;;;;15.57;2.42;;;;;;;8.97;95.18;100839.53;5008094;28;20104;-65
2024/02/05 06:21:08;;;;;;;9.30;2.40;;;;;;;8.97;95.10;100825.72;5007339;28;20054;-66
2024/02/05 06:23:36;;;;;;;7.43;1.90;;;;;;;8.97;95.01;100822.16;5007803;28;20042;-65
2024/02/05 06:26:03;;;;;;;14.25;2.17;;;;;;;8.95;95.13;100825.22;5008102;28;20093;-65
2024/02/05 06:28:32;;;;;;;8.07;1.80;;;;;;;8.95;95.16;100830.75;5008221;28;20130;-65
2024/02/05 06:30:59;;;;;;;11.07;3.50;;;;;;;8.94;95.13;100823.63;5007466;28;20056;-65
2024/02/05 06:33:30;;;;;;;19.00;2.92;;;;;;;8.93;95.24;100805.44;5008267;28;20053;-65
2024/02/05 06:35:57;;;;;;;5.15;1.45;;;;;;;8.92;95.15;100820.38;4990518;28;20049;-65
2024/02/05 06:38:25;;;;;;;10.13;2.10;;;;;;;8.91;95.58;100813.25;5008263;28;20056;-65
2024/02/05 06:40:52;;;;;;;6.07;1.40;;;;;;;8.90;95.38;100810.78;4996042;28;20051;-65
2024/02/05 06:43:19;;;;;;;5.72;1.60;;;;;;;8.90;95.46;100817.13;5007006;28;20530;-66
2024/02/05 06:45:47;;;;;;;9.35;1.33;;;;;;;8.90;95.45;100819.09;5007349;28;20045;-64
2024/02/05 06:48:14;;;;;;;7.15;1.40;;;;;;;8.89;95.52;100811.97;5007589;28;20046;-65
2024/02/05 06:50:42;;;;;;;4.03;1.75;;;;;;;8.87;95.75;100815.03;5007678;28;20037;-65
2024/02/05 06:53:09;;;;;;;4.43;1.17;;;;;;;8.86;95.48;100809.84;5005969;28;20046;-65
2024/02/05 06:55:36;;;;;;;6.80;1.40;;;;;;;8.86;95.93;100807.09;5007623;28;20045;-65
2024/02/05 06:58:04;;;;;;;12.52;1.73;;;;;;;8.85;95.81;100809.03;5007363;28;20403;-65
2024/02/05 07:00:32;;;;;;;4.65;1.00;;;;;;;8.86;95.90;100804.34;5006680;28;20408;-65
2024/02/05 07:02:59;;;;;;;8.00;1.25;;;;;;;8.86;95.89;100809.84;4994438;28;20042;-65
2024/02/05 07:05:27;;;;;;;4.90;1.00;;;;;;;8.86;95.97;100802.41;5007209;28;20060;-66
2024/02/05 07:07:54;;;;;;;4.30;0.77;;;;;;;8.88;96.27;100807.56;5007214;28;20061;-65
2024/02/05 07:10:22;;;;;;;2.55;0.90;;;;;;;8.89;96.11;100795.41;5007296;28;20054;-65
2024/02/05 07:12:49;;;;;;;5.68;1.20;;;;;;;8.91;96.44;100801.38;5007150;28;20046;-64
2024/02/05 07:15:16;;;;;;;5.28;0.95;;;;;;;8.93;96.44;100799.91;5006613;28;20092;-65
2024/02/05 07:17:45;;;;;;;7.72;1.20;;;;;;;8.95;96.55;100792.09;5007108;28;20078;-65
2024/02/05 07:20:12;;;;;;;7.15;0.82;;;;;;;8.98;96.65;100801.66;5006923;28;20675;-65
2024/02/05 07:22:40;;;;;;;1.88;0.82;;;;;;;8.98;96.67;100788.66;4989835;28;20046;-65
2024/02/05 07:25:07;;;;;;;2.80;0.85;;;;;;;8.99;96.75;100787.53;5007136;28;20403;-65
2024/02/05 07:27:37;;;;;;;1.00;0.65;;;;;;;9.00;97.01;100785.59;5006715;28;20057;-65
2024/02/05 07:30:05;;;;;;;4.68;0.80;;;;;;;9.00;97.06;100778.09;5009840;28;20411;-65
2024/02/05 07:32:33;;;;;;;1.33;1.05;;;;;;;9.00;97.17;100778.09;4990864;28;20551;-65
2024/02/05 07:35:01;;;;;;;6.13;0.95;;;;;;;8.99;97.28;100784.78;5002594;28;20522;-65
2024/02/05 07:37:30;;;;;;;6.85;1.10;;;;;;;9.01;97.30;100776.16;4999354;28;20042;-65
2024/02/05 07:39:57;;;;;;;5.75;1.13;;;;;;;9.02;97.31;100773.06;5003541;28;20578;-65
2024/02/05 07:42:25;;;;;;;2.35;0.88;;;;;;;9.01;97.51;100771.44;5007127;28;20061;-65
2024/02/05 07:44:52;;;;;;;1.60;1.20;;;;;;;9.00;97.64;100778.09;5006630;28;20052;-65
2024/02/05 07:47:20;;;;;;;2.80;0.80;;;;;;;8.99;97.82;100770.97;5006470;28;20451;-65
2024/02/05 07:49:47;;;;;;;3.28;0.98;;;;;;;8.98;98.19;100769.34;5006609;28;20042;-65
2024/02/05 07:52:16;;;;;;;5.28;0.88;;;;;;;8.97;97.83;100762.22;5002247;28;20451;-65
2024/02/05 07:54:43;;;;;;;8.65;1.67;;;;;;;8.93;98.02;100758.50;5006478;28;20061;-65
2024/02/05 07:57:10;;;;;;;7.57;1.35;;;;;;;8.90;98.15;100761.09;5006467;28;20100;-65
2024/02/05 07:59:39;;;;;;;4.70;1.45;;;;;;;8.85;98.18;100751.06;5006607;28;20053;-65
2024/02/05 08:02:06;;;;;;;4.10;0.75;;;;;;;8.82;98.38;100759.19;5006220;28;20681;-65
2024/02/05 08:04:34;;;;;;;1.48;0.60;;;;;;;8.79;98.58;100755.16;4993236;28;20053;-65
2024/02/05 08:07:04;;;;;;;4.15;0.90;;;;;;;8.80;98.84;100762.31;5004555;28;20054;-65
2024/02/05 08:09:32;;;;;;;2.55;0.80;;;;;;;8.81;98.96;100761.19;5006237;28;20056;-65
2024/02/05 08:12:02;;;;;;;4.60;0.68;;;;;;;8.84;98.83;100765.22;5006269;28;20061;-65
2024/02/05 08:14:30;;;;;;;1.58;0.68;;;;;;;8.85;99.19;100758.53;5006626;28;20495;-65
2024/02/05 08:16:57;;;;;;;0.95;0.50;;;;;;;8.86;99.01;100760.97;5006248;28;20054;-65
2024/02/05 08:19:24;;;;;;;3.05;0.60;;;;;;;8.86;99.50;100744.41;5005968;28;20042;-65
2024/02/05 08:21:52;;;;;;;4.07;0.75;;;;;;;8.87;99.53;100740.50;4988926;28;20058;-65
2024/02/05 08:24:19;;;;;;;1.27;0.70;;;;;;;8.88;99.66;100753.16;5006443;28;20455;-65
2024/02/05 08:26:48;;;;;;;3.33;0.50;;;;;;;8.87;99.85;100745.22;5004649;28;20050;-65
2024/02/05 08:29:18;;;;;;;1.05;0.47;;;;;;;8.89;100.00;100754.78;4996834;28;20056;-65
2024/02/05 08:31:46;;;;;;;0.45;0.45;;;;;;;8.90;99.99;100734.31;5006222;28;20503;-65
2024/02/05 08:34:13;;;;;;;2.75;0.63;;;;;;;8.93;100.00;100733.66;5005161;28;20456;-65
2024/02/05 08:36:41;;;;;;;3.83;0.70;;;;;;;8.93;100.00;100722.59;5006267;28;20038;-65
2024/02/05 08:39:10;;;;;;;6.30;0.90;;;;;;;8.96;100.00;100721.94;4988812;28;20053;-65
2024/02/05 08:41:38;;;;;;;2.38;0.60;;;;;;;9.00;100.00;100695.25;5005944;28;20038;-66
2024/02/05 08:44:06;;;;;;;5.47;1.00;;;;;;;9.02;100.00;100715.09;5006374;28;20057;-66
2024/02/05 08:46:34;;;;;;;2.03;0.47;;;;;;;9.05;100.00;100719.91;4999804;28;20041;-65
2024/02/05 08:49:01;;;;;;;1.73;0.40;;;;;;;9.08;100.00;100710.94;5009944;28;20723;-66
2024/02/05 08:51:30;;;;;;;0.30;0.30;;;;;;;9.12;100.00;100702.81;5004806;28;20042;-65
2024/02/05 08:53:58;;;;;;;0.88;0.50;;;;;;;9.15;100.00;100702.97;5009712;28;20046;-65
2024/02/05 08:56:25;;;;;;;4.85;1.15;;;;;;;9.19;100.00;100692.84;5009522;28;20050;-65
2024/02/05 08:58:53;;;;;;;3.22;0.40;;;;;;;9.24;100.00;100688.28;4992469;28;20054;-65
2024/02/05 09:01:20;;;;;;;3.67;0.47;;;;;;;9.27;100.00;100693.09;4998546;28;20392;-65
2024/02/05 09:03:47;;;;;;;3.10;0.47;;;;;;;9.31;100.00;100692.09;5009043;28;20530;-65
2024/02/05 09:06:15;;;;;;;0.60;0.43;;;;;;;9.35;100.00;100692.22;5009319;28;20060;-65
2024/02/05 09:08:43;;;;;;;1.88;0.35;;;;;;;9.41;100.00;100677.06;5008560;28;20065;-65
2024/02/05 09:11:10;;;;;;;0.73;0.28;;;;;;;9.45;100.00;100672.50;5009829;28;20057;-65
2024/02/05 09:13:41;;;;;;;3.63;0.50;;;;;;;9.48;100.00;100672.59;5008985;28;20419;-65
2024/02/05 09:16:09;;;;;;;1.38;0.40;;;;;;;9.51;99.96;100671.91;5009049;28;20511;-65
2024/02/05 09:18:37;;;;;;;5.60;0.75;;;;;;;9.57;99.81;100667.00;5009010;28;20057;-65
2024/02/05 09:21:05;;;;;;;4.18;1.45;;;;;;;9.66;99.49;100662.19;5009821;28;20061;-65
2024/02/05 09:23:34;;;;;;;2.30;0.40;;;;;;;9.69;99.50;100658.72;5009213;28;20411;-65
2024/02/05 09:26:01;;;;;;;2.28;0.60;;;;;;;9.73;99.45;100662.44;5009052;28;20049;-65
2024/02/05 09:28:29;;;;;;;5.43;0.80;;;;;;;9.74;99.38;100656.56;5008105;28;20711;-63
2024/02/05 09:30:56;;;;;;;4.40;0.82;;;;;;;9.77;99.25;100657.81;5008783;28;20054;-64
2024/02/05 09:33:38;;;;;;;1.53;0.93;;;;;;;9.79;99.10;100653.56;5008927;28;20077;-65
2024/02/05 09:36:05;;;;;;;4.60;1.17;;;;;;;9.81;99.12;100647.72;5008769;28;20365;-63
2024/02/05 09:38:33;;;;;;;1.70;0.60;;;;;;;9.84;98.98;100651.75;4994011;28;20084;-64
2024/02/05 09:41:05;;;;;;;4.25;0.52;;;;;;;9.86;98.98;100636.44;5002832;28;20049;-65
2024/02/05 09:43:33;;;;;;;2.40;0.70;;;;;;;9.88;98.87;100652.66;4986691;28;20053;-63
2024/02/05 09:46:05;;;;;;;4.50;0.45;;;;;;;9.90;98.82;100640.13;5008822;28;20049;-63
2024/02/05 09:48:34;;;;;;;5.40;0.80;;;;;;;9.92;98.67;100635.06;5009381;28;20542;-64
2024/02/05 09:51:11;;;;;;;3.30;0.60;;;;;;;9.96;98.50;100641.50;5009922;28;20061;-64
2024/02/05 09:53:40;;;;;;;1.80;0.55;;;;;;;10.00;98.37;100625.88;5008781;28;20046;-64
2024/02/05 09:56:09;;;;;;;5.75;1.20;;;;;;;10.01;98.35;100624.69;5007120;28;20049;-63
2024/02/05 09:58:36;;;;;;;6.70;1.48;;;;;;;10.04;98.25;100618.47;5007305;28;20041;-62
2024/02/05 10:01:04;;;;;;;2.28;0.98;;;;;;;10.06;98.24;100616.16;5009322;28;20054;-62
2024/02/05 10:03:32;;;;;;;1.85;0.90;;;;;;;10.07;98.05;100617.78;5013000;28;20064;-62
2024/02/05 10:06:07;;;;;;;3.17;1.63;;;;;;;10.09;97.84;100620.19;5008589;28;20053;-64
2024/02/05 10:08:36;;;;;;;4.63;1.00;;;;;;;10.09;97.72;100626.53;5008545;28;20054;-63
2024/02/05 10:11:08;;;;;;;3.83;1.45;;;;;;;10.09;97.63;100632.06;4995080;28;20038;-63
2024/02/05 10:13:35;;;;;;;;;;;;;;;10.08;97.72;100622.19;5009452;28;20041;-61
2024/02/05 10:16:03;;;;;;;2.30;1.30;;;;;;;10.08;97.48;100619.41;5008175;28;19931;-62
2024/02/05 10:18:31;;;;;;;1.45;0.77;;;;;;;10.08;97.54;100624.13;5006885;28;20046;-64
2024/02/05 10:21:03;;;;;;;3.47;1.38;;;;;;;10.07;97.42;100644.63;5007534;28;20038;-63
2024/02/05 10:23:31;;;;;;;6.30;1.90;;;;;;;10.05;97.35;100636.69;5007344;28;20076;-63
2024/02/05 10:26:01;;;;;;;4.93;1.27;;;;;;;10.05;97.39;100635.88;5007552;28;20061;-63
2024/02/05 10:28:29;;;;;;;4.97;1.60;;;;;;;10.04;97.38;100632.31;5007687;28;20038;-64
2024/02/05 10:31:07;;;;;;;5.30;1.33;;;;;;;10.02;97.45;100634.63;5007528;28;20069;-64
2024/02/05 10:33:34;;;;;;;6.53;2.55;;;;;;;9.99;97.51;100629.75;5007219;28;20045;-64
2024/02/05 10:36:02;;;;;;;6.63;1.27;;;;;;;9.98;97.63;100646.72;5008049;28;20042;-64
2024/02/05 10:38:34;;;;;;;4.15;1.00;;;;;;;9.97;97.81;100639.56;5008256;28;20053;-64
2024/02/05 10:41:05;;;;;;;1.52;1.20;;;;;;;9.94;97.92;100635.53;5007711;28;20057;-64
2024/02/05 10:43:33;;;;;;;5.90;1.15;;;;;;;9.92;98.14;100625.97;5007655;28;20559;-64
2024/02/05 10:46:01;;;;;;;5.38;1.00;;;;;;;9.92;97.91;100628.72;5007589;28;20057;-65
2024/02/05 10:48:28;;;;;;;5.68;1.00;;;;;;;9.90;98.23;100612.47;5007570;28;20050;-63
2024/02/05 10:50:56;;;;;;;5.28;1.10;;;;;;;9.93;98.34;100617.31;5007500;28;20069;-62
2024/02/05 10:53:26;;;;;;;5.00;1.42;;;;;;;9.98;97.88;100613.53;5007619;28;20061;-62
2024/02/05 10:55:56;;;;;;;3.53;1.27;;;;;;;10.00;98.20;100603.72;5007272;28;20056;-61
2024/02/05 10:58:25;;;;;;;7.63;1.38;;;;;;;10.04;98.36;100599.13;4990769;28;20046;-62
2024/02/05 11:00:59;;;;;;;5.18;1.98;;;;;;;10.06;98.16;100605.09;5003693;28;20057;-62
2024/02/05 11:03:28;;;;;;;5.18;1.83;;;;;;;10.08;98.10;100602.81;4991358;28;20069;-61
2024/02/05 11:05:58;;;;;;;4.78;2.58;;;;;;;10.10;98.17;100594.97;5004725;28;20046;-61
2024/02/05 11:08:29;;;;;;;3.38;1.20;;;;;;;10.12;97.80;100584.41;5006640;28;20054;-62
2024/02/05 11:10:59;;;;;;;8.10;1.35;;;;;;;10.14;97.58;100595.91;5007693;28;20118;-60
2024/02/05 11:13:34;;;;;;;4.43;1.42;;;;;;;10.17;97.44;100598.00;5016453;28;20411;-61
2024/02/05 11:16:03;;;;;;;7.55;1.48;;;;;;;10.18;97.33;100591.31;4994370;28;20045;-61
2024/02/05 11:18:47;;;;;;;4.55;1.42;;;;;;;10.20;97.08;100589.00;5005356;28;20050;-62
2024/02/05 11:21:21;;;;;;;3.67;1.48;;;;;;;10.25;97.10;100579.66;4998595;28;20077;-61
2024/02/05 11:23:51;;;;;;;5.90;1.50;;;;;;;10.28;96.77;100579.78;5007327;28;20065;-61
2024/02/05 11:26:19;;;;;;;9.63;2.05;;;;;;;10.32;96.74;100564.13;4997709;28;20664;-61
2024/02/05 11:28:50;;;;;;;3.78;1.10;;;;;;;10.39;96.44;100561.56;5007005;28;20050;-61
2024/02/05 11:31:18;;;;;;;6.60;1.50;;;;;;;10.45;96.00;100566.84;5001094;28;20466;-62
2024/02/05 11:33:45;;;;;;;4.13;2.05;;;;;;;10.48;95.99;100561.44;5006411;28;20053;-61